createdAt,value
2022-08-11T00:00:11.160Z,0.60
2022-08-11T00:01:11.145Z,0.60
2022-08-11T00:02:15.121Z,0.50
2022-08-11T00:03:11.870Z,0.60
2022-08-11T00:04:11.131Z,0.80
2022-08-11T00:05:17.694Z,0.70
2022-08-11T00:06:11.699Z,0.80
2022-08-11T00:07:11.077Z,0.90
2022-08-11T00:08:11.082Z,0.70
2022-08-11T00:09:11.074Z,0.60
2022-08-11T00:10:11.699Z,0.60
2022-08-11T00:11:11.038Z,0.60
2022-08-11T00:12:11.024Z,0.50
2022-08-11T00:13:11.028Z,0.60
2022-08-11T00:14:12.027Z,0.50
2022-08-11T00:15:11.018Z,0.60
2022-08-11T00:16:10.986Z,0.50
2022-08-11T00:17:10.976Z,0.70
2022-08-11T00:18:11.227Z,0.60
2022-08-11T00:19:13.701Z,0.60
2022-08-11T00:20:16.197Z,0.70
2022-08-11T00:21:11.923Z,0.60
2022-08-11T00:22:11.249Z,0.50
2022-08-11T00:23:10.920Z,0.70
2022-08-11T00:24:10.905Z,0.60
2022-08-11T00:25:11.237Z,0.60
2022-08-11T00:26:13.699Z,0.60
2022-08-11T00:27:25.702Z,0.60
2022-08-11T00:28:11.695Z,0.60
2022-08-11T00:29:10.870Z,0.60
2022-08-11T00:30:11.237Z,0.40
2022-08-11T00:31:10.816Z,0.60
2022-08-11T00:32:11.701Z,0.60
2022-08-11T00:33:10.790Z,0.80
2022-08-11T00:34:13.704Z,0.70
2022-08-11T00:35:55.472Z,0.60
2022-08-11T00:36:11.776Z,0.80
2022-08-11T00:37:10.762Z,0.60
2022-08-11T00:38:10.734Z,0.60
2022-08-11T00:39:31.759Z,0.60
2022-08-11T00:40:10.721Z,0.60
2022-08-11T00:41:10.749Z,0.80
2022-08-11T00:42:11.196Z,0.70
2022-08-11T00:43:11.548Z,0.70
2022-08-11T00:44:12.196Z,0.70
2022-08-11T00:45:10.657Z,0.90
2022-08-11T00:46:11.221Z,0.80
2022-08-11T00:47:10.729Z,0.90
2022-08-11T00:48:11.201Z,0.60
2022-08-11T00:49:17.204Z,0.70
2022-08-11T00:50:10.603Z,0.50
2022-08-11T00:51:10.597Z,0.70
2022-08-11T00:52:10.752Z,0.60
2022-08-11T00:53:10.606Z,0.70
2022-08-11T00:54:10.565Z,0.70
2022-08-11T00:55:10.560Z,0.60
2022-08-11T00:56:10.545Z,0.60
2022-08-11T00:57:36.093Z,0.60
2022-08-11T00:58:11.533Z,0.70
2022-08-11T00:59:26.427Z,0.70
2022-08-11T01:00:11.496Z,0.70
2022-08-11T01:01:10.657Z,0.70
2022-08-11T01:02:13.204Z,0.90
2022-08-11T01:03:10.480Z,0.80
2022-08-11T01:04:11.201Z,0.70
2022-08-11T01:05:13.197Z,0.80
2022-08-11T01:06:10.425Z,0.60
2022-08-11T01:08:02.345Z,0.60
2022-08-11T01:08:12.692Z,0.80
2022-08-11T01:09:10.408Z,0.70
2022-08-11T01:10:14.202Z,0.90
2022-08-11T01:11:10.730Z,0.60
2022-08-11T01:12:13.205Z,0.70
2022-08-11T01:13:10.352Z,0.80
2022-08-11T01:14:10.355Z,0.70
2022-08-11T01:15:10.750Z,0.70
2022-08-11T01:16:11.227Z,0.60
2022-08-11T01:17:17.204Z,0.70
2022-08-11T01:18:11.213Z,0.70
2022-08-11T01:19:10.293Z,0.70
2022-08-11T01:20:47.406Z,0.60
2022-08-11T01:21:12.230Z,0.80
2022-08-11T01:22:11.213Z,0.80
2022-08-11T01:23:12.541Z,0.80
2022-08-11T01:24:12.209Z,0.70
2022-08-11T01:25:16.757Z,0.70
2022-08-11T01:26:10.215Z,0.70
2022-08-11T01:27:18.886Z,0.70
2022-08-11T01:28:17.716Z,0.70
2022-08-11T01:29:10.189Z,0.70
2022-08-11T01:30:12.704Z,0.80
2022-08-11T01:31:10.231Z,0.70
2022-08-11T01:32:10.165Z,0.80
2022-08-11T01:33:10.731Z,0.60
2022-08-11T01:34:10.127Z,0.80
2022-08-11T01:35:10.150Z,0.90
2022-08-11T01:36:10.140Z,0.70
2022-08-11T01:37:10.120Z,0.70
2022-08-11T01:38:10.093Z,0.70
2022-08-11T01:39:10.199Z,0.90
2022-08-11T01:40:16.709Z,0.80
2022-08-11T01:41:10.060Z,0.90
2022-08-11T01:42:10.702Z,0.80
2022-08-11T01:43:10.236Z,0.70
2022-08-11T01:44:12.937Z,0.90
2022-08-11T01:45:10.025Z,0.90
2022-08-11T01:46:10.021Z,0.60
2022-08-11T01:47:09.999Z,0.90
2022-08-11T01:48:10.719Z,0.80
2022-08-11T01:50:02.882Z,0.80
2022-08-11T01:50:11.033Z,0.70
2022-08-11T01:51:09.969Z,1.00
2022-08-11T01:52:11.707Z,0.80
2022-08-11T01:53:09.935Z,0.70
2022-08-11T01:54:09.934Z,0.70
2022-08-11T01:55:09.900Z,0.80
2022-08-11T01:56:12.710Z,0.90
2022-08-11T01:57:09.891Z,0.80
2022-08-11T01:58:09.866Z,0.90
2022-08-11T01:59:10.750Z,0.70
2022-08-11T02:00:09.867Z,0.80
2022-08-11T02:01:09.923Z,0.90
2022-08-11T02:02:09.847Z,0.70
2022-08-11T02:03:10.821Z,0.80
2022-08-11T02:04:09.808Z,0.70
2022-08-11T02:05:09.818Z,0.70
2022-08-11T02:06:09.791Z,1.00
2022-08-11T02:07:09.771Z,1.00
2022-08-11T02:08:11.672Z,0.90
2022-08-11T02:09:09.759Z,0.80
2022-08-11T02:10:09.754Z,1.00
2022-08-11T02:11:09.774Z,1.20
2022-08-11T02:12:09.717Z,0.70
2022-08-11T02:13:09.813Z,1.00
2022-08-11T02:14:10.236Z,0.80
2022-08-11T02:15:09.699Z,0.80
2022-08-11T02:16:09.766Z,1.10
2022-08-11T02:17:10.217Z,0.80
2022-08-11T02:18:09.641Z,0.80
2022-08-11T02:19:16.326Z,0.90
2022-08-11T02:20:10.215Z,0.80
2022-08-11T02:21:10.694Z,0.90
2022-08-11T02:22:24.230Z,0.80
2022-08-11T02:23:41.062Z,0.80
2022-08-11T02:24:10.586Z,1.00
2022-08-11T02:25:09.738Z,0.90
2022-08-11T02:26:10.213Z,0.80
2022-08-11T02:27:09.584Z,0.90
2022-08-11T02:28:09.552Z,0.80
2022-08-11T02:29:09.546Z,0.90
2022-08-11T02:30:09.526Z,0.80
2022-08-11T02:31:09.533Z,0.90
2022-08-11T02:32:24.610Z,0.80
2022-08-11T02:33:10.498Z,1.00
2022-08-11T02:34:10.229Z,1.00
2022-08-11T02:35:10.220Z,0.90
2022-08-11T02:36:09.455Z,0.80
2022-08-11T02:37:09.452Z,0.80
2022-08-11T02:38:09.747Z,0.90
2022-08-11T02:39:09.471Z,0.90
2022-08-11T02:40:16.231Z,1.00
2022-08-11T02:41:09.418Z,1.10
2022-08-11T02:42:35.165Z,0.80
2022-08-11T02:43:10.763Z,0.90
2022-08-11T02:44:12.230Z,0.90
2022-08-11T02:45:12.221Z,0.90
2022-08-11T02:46:09.392Z,1.00
2022-08-11T02:47:10.345Z,1.10
2022-08-11T02:48:09.349Z,0.90
2022-08-11T02:49:10.224Z,1.10
2022-08-11T02:50:09.304Z,0.90
2022-08-11T02:51:09.286Z,0.90
2022-08-11T02:52:10.227Z,1.00
2022-08-11T02:53:10.221Z,1.10
2022-08-11T02:54:09.280Z,1.00
2022-08-11T02:55:09.297Z,0.90
2022-08-11T02:56:09.238Z,1.20
2022-08-11T02:57:11.299Z,1.00
2022-08-11T02:58:09.728Z,1.20
2022-08-11T02:59:11.729Z,1.00
2022-08-11T03:00:09.193Z,0.80
2022-08-11T03:01:09.206Z,1.00
2022-08-11T03:02:15.727Z,1.00
2022-08-11T03:03:09.169Z,1.10
2022-08-11T03:04:09.170Z,0.90
2022-08-11T03:05:09.162Z,1.00
2022-08-11T03:06:09.722Z,0.90
2022-08-11T03:07:28.931Z,1.10
2022-08-11T03:08:10.110Z,1.00
2022-08-11T03:09:11.730Z,0.90
2022-08-11T03:10:09.088Z,1.20
2022-08-11T03:11:09.096Z,1.00
2022-08-11T03:12:09.733Z,1.00
2022-08-11T03:13:09.042Z,0.90
2022-08-11T03:14:09.033Z,1.00
2022-08-11T03:15:09.046Z,0.90
2022-08-11T03:16:10.084Z,1.00
2022-08-11T03:17:09.001Z,0.90
2022-08-11T03:18:09.038Z,0.90
2022-08-11T03:19:08.981Z,1.00
2022-08-11T03:20:09.263Z,1.10
2022-08-11T03:21:08.960Z,0.90
2022-08-11T03:22:08.953Z,1.10
2022-08-11T03:23:19.806Z,1.10
2022-08-11T03:24:08.928Z,1.30
2022-08-11T03:25:12.917Z,1.00
2022-08-11T03:26:08.909Z,0.90
2022-08-11T03:27:08.901Z,1.00
2022-08-11T03:28:08.886Z,1.00
2022-08-11T03:29:08.878Z,1.00
2022-08-11T03:30:08.882Z,1.00
2022-08-11T03:31:08.849Z,1.00
2022-08-11T03:32:08.842Z,0.90
2022-08-11T03:33:08.845Z,1.20
2022-08-11T03:34:08.830Z,0.90
2022-08-11T03:35:08.816Z,1.00
2022-08-11T03:36:08.820Z,1.10
2022-08-11T03:37:16.326Z,1.10
2022-08-11T03:38:09.780Z,1.00
2022-08-11T03:39:16.829Z,1.20
2022-08-11T03:40:08.769Z,1.40
2022-08-11T03:42:02.139Z,1.40
2022-08-11T03:42:10.394Z,1.00
2022-08-11T03:43:08.721Z,1.00
2022-08-11T03:44:08.730Z,1.00
2022-08-11T03:45:09.226Z,1.10
2022-08-11T03:46:08.720Z,1.10
2022-08-11T03:47:09.236Z,1.00
2022-08-11T03:48:08.665Z,1.10
2022-08-11T03:49:08.655Z,1.20
2022-08-11T03:50:23.231Z,1.30
2022-08-11T03:51:09.673Z,1.20
2022-08-11T03:52:08.636Z,0.90
2022-08-11T03:53:08.615Z,1.10
2022-08-11T03:54:08.601Z,1.40
2022-08-11T03:55:08.590Z,1.30
2022-08-11T03:56:08.598Z,1.20
2022-08-11T03:57:08.574Z,1.20
2022-08-11T03:58:08.757Z,1.20
2022-08-11T03:59:08.588Z,1.20
2022-08-11T04:00:08.534Z,1.10
2022-08-11T04:01:08.568Z,1.10
2022-08-11T04:02:08.521Z,1.40
2022-08-11T04:03:09.236Z,1.70
2022-08-11T04:04:08.497Z,1.30
2022-08-11T04:05:08.480Z,1.10
2022-08-11T04:06:08.475Z,1.30
2022-08-11T04:07:09.244Z,1.10
2022-08-11T04:08:09.443Z,1.10
2022-08-11T04:09:08.455Z,1.00
2022-08-11T04:10:08.427Z,1.20
2022-08-11T04:11:08.440Z,1.20
2022-08-11T04:12:08.402Z,1.20
2022-08-11T04:13:09.417Z,1.30
2022-08-11T04:14:08.381Z,1.20
2022-08-11T04:15:08.378Z,1.40
2022-08-11T04:16:11.105Z,1.10
2022-08-11T04:17:08.764Z,1.30
2022-08-11T04:18:08.340Z,1.20
2022-08-11T04:19:08.333Z,1.30
2022-08-11T04:20:08.337Z,1.10
2022-08-11T04:21:08.324Z,1.30
2022-08-11T04:22:08.291Z,1.20
2022-08-11T04:23:08.307Z,1.20
2022-08-11T04:24:34.527Z,1.20
2022-08-11T04:25:10.228Z,1.30
2022-08-11T04:26:18.510Z,1.30
2022-08-11T04:27:10.435Z,1.40
2022-08-11T04:28:28.957Z,1.40
2022-08-11T04:29:09.752Z,1.10
2022-08-11T04:30:11.957Z,1.50
2022-08-11T04:31:10.103Z,1.20
2022-08-11T04:32:08.194Z,1.70
2022-08-11T04:33:08.189Z,1.40
2022-08-11T04:34:08.194Z,1.30
2022-08-11T04:35:08.157Z,1.50
2022-08-11T04:36:22.747Z,1.40
2022-08-11T04:37:08.145Z,1.50
2022-08-11T04:38:08.130Z,1.60
2022-08-11T04:39:08.204Z,1.30
2022-08-11T04:40:08.097Z,1.30
2022-08-11T04:41:08.079Z,1.20
2022-08-11T04:42:08.081Z,1.40
2022-08-11T04:43:08.094Z,1.60
2022-08-11T04:44:08.067Z,1.30
2022-08-11T04:45:08.046Z,1.40
2022-08-11T04:46:08.031Z,1.50
2022-08-11T04:47:08.031Z,1.40
2022-08-11T04:48:08.008Z,1.50
2022-08-11T04:49:08.013Z,1.40
2022-08-11T04:50:08.008Z,1.40
2022-08-11T04:51:16.971Z,1.20
2022-08-11T04:52:09.756Z,1.30
2022-08-11T04:53:07.952Z,1.30
2022-08-11T04:54:07.938Z,1.10
2022-08-11T04:55:07.928Z,1.40
2022-08-11T04:56:07.955Z,1.20
2022-08-11T04:57:07.953Z,1.50
2022-08-11T04:58:07.907Z,1.50
2022-08-11T04:59:07.884Z,1.30
2022-08-11T05:00:07.897Z,1.70
2022-08-11T05:01:07.896Z,1.30
2022-08-11T05:02:16.990Z,1.20
2022-08-11T05:03:08.846Z,1.20
2022-08-11T05:04:07.836Z,1.50
2022-08-11T05:05:07.840Z,1.40
2022-08-11T05:06:07.809Z,1.40
2022-08-11T05:07:07.829Z,1.20
2022-08-11T05:08:07.792Z,1.30
2022-08-11T05:09:07.778Z,1.20
2022-08-11T05:10:07.786Z,1.50
2022-08-11T05:11:07.773Z,1.20
2022-08-11T05:12:07.748Z,1.30
2022-08-11T05:13:07.740Z,1.20
2022-08-11T05:14:07.745Z,1.20
2022-08-11T05:15:07.709Z,1.10
2022-08-11T05:16:07.702Z,1.20
2022-08-11T05:17:07.716Z,1.30
2022-08-11T05:18:07.679Z,1.20
2022-08-11T05:19:07.671Z,1.30
2022-08-11T05:20:07.679Z,1.20
2022-08-11T05:21:07.649Z,1.20
2022-08-11T05:22:07.641Z,1.10
2022-08-11T05:23:07.645Z,1.20
2022-08-11T05:24:07.615Z,1.20
2022-08-11T05:25:07.610Z,1.50
2022-08-11T05:26:44.378Z,1.50
2022-08-11T05:27:13.355Z,1.20
2022-08-11T05:28:08.567Z,1.40
2022-08-11T05:29:19.197Z,1.20
2022-08-11T05:30:08.580Z,1.20
2022-08-11T05:31:07.541Z,1.10
2022-08-11T05:32:07.525Z,1.10
2022-08-11T05:33:07.517Z,1.30
2022-08-11T05:34:07.489Z,1.40
2022-08-11T05:35:07.621Z,1.30
2022-08-11T05:36:07.560Z,1.30
2022-08-11T05:37:25.569Z,1.30
2022-08-11T05:38:08.472Z,1.10
2022-08-11T05:39:07.503Z,1.30
2022-08-11T05:40:07.491Z,1.30
2022-08-11T05:41:07.426Z,1.30
2022-08-11T05:42:29.784Z,1.50
2022-08-11T05:43:09.245Z,1.20
2022-08-11T05:44:20.282Z,1.40
2022-08-11T05:45:15.776Z,1.40
2022-08-11T05:46:12.812Z,1.50
2022-08-11T05:47:07.372Z,1.20
2022-08-11T05:48:07.363Z,1.20
2022-08-11T05:49:07.342Z,1.50
2022-08-11T05:50:07.346Z,1.30
2022-08-11T05:51:10.385Z,1.50
2022-08-11T05:52:12.985Z,1.20
2022-08-11T05:53:09.197Z,1.10
2022-08-11T05:54:07.293Z,1.30
2022-08-11T05:55:08.270Z,1.60
2022-08-11T05:56:08.260Z,1.40
2022-08-11T05:57:07.254Z,1.10
2022-08-11T05:58:07.237Z,1.20
2022-08-11T05:59:07.228Z,1.40
2022-08-11T06:00:07.217Z,1.20
2022-08-11T06:01:07.253Z,1.10
2022-08-11T06:02:07.206Z,1.30
2022-08-11T06:03:07.203Z,1.30
2022-08-11T06:04:07.185Z,1.30
2022-08-11T06:05:07.171Z,1.10
2022-08-11T06:06:07.156Z,1.40
2022-08-11T06:07:07.758Z,1.10
2022-08-11T06:08:07.129Z,1.20
2022-08-11T06:09:07.138Z,1.00
2022-08-11T06:10:07.110Z,1.30
2022-08-11T06:11:07.116Z,1.40
2022-08-11T06:12:07.086Z,1.00
2022-08-11T06:13:07.089Z,1.10
2022-08-11T06:14:07.063Z,1.00
2022-08-11T06:15:07.059Z,1.10
2022-08-11T06:16:07.341Z,1.20
2022-08-11T06:17:07.057Z,1.10
2022-08-11T06:18:07.012Z,1.00
2022-08-11T06:19:09.757Z,0.90
2022-08-11T06:20:07.612Z,1.10
2022-08-11T06:21:07.010Z,1.10
2022-08-11T06:22:06.981Z,1.10
2022-08-11T06:23:06.969Z,1.20
2022-08-11T06:24:06.955Z,1.10
2022-08-11T06:25:06.941Z,0.70
2022-08-11T06:26:06.951Z,1.00
2022-08-11T06:27:12.656Z,1.10
2022-08-11T06:28:07.905Z,1.00
2022-08-11T06:29:06.907Z,1.20
2022-08-11T06:30:06.888Z,0.90
2022-08-11T06:31:07.279Z,0.90
2022-08-11T06:32:06.871Z,0.90
2022-08-11T06:33:06.860Z,1.10
2022-08-11T06:34:07.288Z,0.90
2022-08-11T06:35:06.836Z,1.00
2022-08-11T06:36:06.844Z,0.90
2022-08-11T06:37:06.811Z,0.90
2022-08-11T06:38:06.810Z,0.90
2022-08-11T06:39:07.759Z,1.00
2022-08-11T06:40:06.780Z,0.80
2022-08-11T06:41:06.766Z,0.90
2022-08-11T06:42:06.780Z,0.90
2022-08-11T06:43:06.746Z,0.80
2022-08-11T06:44:06.742Z,0.90
2022-08-11T06:45:06.725Z,1.10
2022-08-11T06:46:06.719Z,0.90
2022-08-11T06:47:06.785Z,1.00
2022-08-11T06:48:06.702Z,0.80
2022-08-11T06:49:06.699Z,0.90
2022-08-11T06:50:06.677Z,0.80
2022-08-11T06:51:06.666Z,0.90
2022-08-11T06:52:06.650Z,0.80
2022-08-11T06:53:06.644Z,0.80
2022-08-11T06:54:07.264Z,0.90
2022-08-11T06:55:06.694Z,0.90
2022-08-11T06:56:09.263Z,1.00
2022-08-11T06:57:29.266Z,0.90
2022-08-11T06:58:07.588Z,1.00
2022-08-11T06:59:07.636Z,0.80
2022-08-11T07:00:06.578Z,1.00
2022-08-11T07:01:06.612Z,0.70
2022-08-11T07:02:09.257Z,0.80
2022-08-11T07:03:06.540Z,0.90
2022-08-11T07:04:06.534Z,0.90
2022-08-11T07:05:06.509Z,0.90
2022-08-11T07:06:06.500Z,0.90
2022-08-11T07:07:06.482Z,0.90
2022-08-11T07:08:33.874Z,0.80
2022-08-11T07:09:07.493Z,0.80
2022-08-11T07:10:06.468Z,0.80
2022-08-11T07:11:06.445Z,0.90
2022-08-11T07:12:06.441Z,0.80
2022-08-11T07:13:06.425Z,0.80
2022-08-11T07:14:06.397Z,1.30
2022-08-11T07:15:06.401Z,1.00
2022-08-11T07:16:12.580Z,1.00
2022-08-11T07:17:07.376Z,1.00
2022-08-11T07:18:06.356Z,0.80
2022-08-11T07:19:06.347Z,0.90
2022-08-11T07:20:07.260Z,0.90
2022-08-11T07:21:06.339Z,0.80
2022-08-11T07:22:07.322Z,1.20
2022-08-11T07:23:06.329Z,1.10
2022-08-11T07:24:06.294Z,0.80
2022-08-11T07:25:06.294Z,1.20
2022-08-11T07:26:06.270Z,1.70
2022-08-11T07:27:06.268Z,0.80
2022-08-11T07:28:06.257Z,1.10
2022-08-11T07:29:06.266Z,1.10
2022-08-11T07:30:06.237Z,1.40
2022-08-11T07:31:06.218Z,1.10
2022-08-11T07:32:06.201Z,1.00
2022-08-11T07:33:06.192Z,0.80
2022-08-11T07:34:11.174Z,1.10
2022-08-11T07:35:07.193Z,0.90
2022-08-11T07:36:06.183Z,0.90
2022-08-11T07:37:06.157Z,0.90
2022-08-11T07:38:07.265Z,0.80
2022-08-11T07:39:06.131Z,1.10
2022-08-11T07:40:06.155Z,0.80
2022-08-11T07:41:06.106Z,0.70
2022-08-11T07:42:06.129Z,0.80
2022-08-11T07:43:06.097Z,0.80
2022-08-11T07:44:06.080Z,0.80
2022-08-11T07:45:06.070Z,0.60
2022-08-11T07:46:06.783Z,0.80
2022-08-11T07:47:06.071Z,0.70
2022-08-11T07:48:06.047Z,0.90
2022-08-11T07:49:06.031Z,0.90
2022-08-11T07:50:06.019Z,0.90
2022-08-11T07:51:06.777Z,0.90
2022-08-11T07:52:06.006Z,0.80
2022-08-11T07:53:05.976Z,1.00
2022-08-11T07:54:16.083Z,0.90
2022-08-11T07:55:07.790Z,0.70
2022-08-11T07:56:05.953Z,0.80
2022-08-11T07:57:09.536Z,0.80
2022-08-11T07:58:16.613Z,0.60
2022-08-11T07:59:08.363Z,0.70
2022-08-11T08:00:05.921Z,0.70
2022-08-11T08:01:09.873Z,0.80
2022-08-11T08:02:08.826Z,0.70
2022-08-11T08:03:05.876Z,0.60
2022-08-11T08:04:05.879Z,0.80
2022-08-11T08:05:05.847Z,0.70
2022-08-11T08:06:05.834Z,0.80
2022-08-11T08:07:06.818Z,0.60
2022-08-11T08:08:05.848Z,0.70
2022-08-11T08:09:06.312Z,0.70
2022-08-11T08:10:05.804Z,0.60
2022-08-11T08:11:05.798Z,0.70
2022-08-11T08:12:05.779Z,0.50
2022-08-11T08:13:05.758Z,0.80
2022-08-11T08:14:05.751Z,0.60
2022-08-11T08:15:05.817Z,0.80
2022-08-11T08:16:05.731Z,0.60
2022-08-11T08:17:05.718Z,0.70
2022-08-11T08:18:09.015Z,0.80
2022-08-11T08:19:06.695Z,0.80
2022-08-11T08:20:05.705Z,0.50
2022-08-11T08:21:05.671Z,0.60
2022-08-11T08:22:37.818Z,0.70
2022-08-11T08:23:06.810Z,0.80
2022-08-11T08:24:05.641Z,0.70
2022-08-11T08:25:05.630Z,0.90
2022-08-11T08:26:16.857Z,0.70
2022-08-11T08:27:13.276Z,0.60
2022-08-11T08:28:05.616Z,0.60
2022-08-11T08:29:05.621Z,1.00
2022-08-11T08:30:05.579Z,0.70
2022-08-11T08:31:05.564Z,0.80
2022-08-11T08:32:05.568Z,0.70
2022-08-11T08:33:05.579Z,0.70
2022-08-11T08:34:05.552Z,0.70
2022-08-11T08:35:05.597Z,0.70
2022-08-11T08:36:05.519Z,0.70
2022-08-11T08:37:16.009Z,0.60
2022-08-11T08:38:06.518Z,0.80
2022-08-11T08:39:05.490Z,0.60
2022-08-11T08:40:05.475Z,0.60
2022-08-11T08:41:05.457Z,1.20
2022-08-11T08:42:06.278Z,0.60
2022-08-11T08:43:05.442Z,0.70
2022-08-11T08:45:06.418Z,0.70
2022-08-11T08:46:05.436Z,0.60
2022-08-11T08:47:05.397Z,0.80
2022-08-11T08:48:05.391Z,0.40
2022-08-11T08:49:05.373Z,0.70
2022-08-11T08:50:05.812Z,0.90
2022-08-11T08:51:07.986Z,0.80
2022-08-11T08:52:27.799Z,0.70
2022-08-11T08:53:07.284Z,0.60
2022-08-11T08:54:05.344Z,0.70
2022-08-11T08:55:06.278Z,0.70
2022-08-11T08:56:05.309Z,0.80
2022-08-11T08:57:05.435Z,0.70
2022-08-11T08:58:05.788Z,0.90
2022-08-11T08:59:05.261Z,0.70
2022-08-11T09:00:05.306Z,1.00
2022-08-11T09:01:05.319Z,0.60
2022-08-11T09:02:05.234Z,0.70
2022-08-11T09:03:22.978Z,0.60
2022-08-11T09:04:11.383Z,0.90
2022-08-11T09:05:06.207Z,0.70
2022-08-11T09:06:05.191Z,0.50
2022-08-11T09:07:05.177Z,0.70
2022-08-11T09:08:05.161Z,0.90
2022-08-11T09:09:05.154Z,0.70
2022-08-11T09:10:05.139Z,0.50
2022-08-11T09:11:05.170Z,0.70
2022-08-11T09:12:05.123Z,0.70
2022-08-11T09:13:05.120Z,0.60
2022-08-11T09:14:09.260Z,0.50
2022-08-11T09:15:06.080Z,0.70
2022-08-11T09:16:07.789Z,0.90
2022-08-11T09:17:05.080Z,0.50
2022-08-11T09:18:05.054Z,0.70
2022-08-11T09:19:05.049Z,0.60
2022-08-11T09:20:05.030Z,0.80
2022-08-11T09:21:05.805Z,0.70
2022-08-11T09:22:05.003Z,0.50
2022-08-11T09:24:13.094Z,0.50
2022-08-11T09:25:05.972Z,0.60
2022-08-11T09:26:04.973Z,0.80
2022-08-11T09:27:04.947Z,0.80
2022-08-11T09:28:05.796Z,0.60
2022-08-11T09:29:05.820Z,0.50
2022-08-11T09:30:05.798Z,0.80
2022-08-11T09:31:07.791Z,0.60
2022-08-11T09:32:04.911Z,0.70
2022-08-11T09:33:04.952Z,0.60
2022-08-11T09:34:04.921Z,0.50
2022-08-11T09:35:04.884Z,0.70
2022-08-11T09:36:04.869Z,0.60
2022-08-11T09:37:04.842Z,0.90
2022-08-11T09:38:04.839Z,0.70
2022-08-11T09:39:04.889Z,0.50
2022-08-11T09:40:04.832Z,0.70
2022-08-11T09:41:04.805Z,0.70
2022-08-11T09:42:04.792Z,0.90
2022-08-11T09:43:04.784Z,0.70
2022-08-11T09:44:04.790Z,0.70
2022-08-11T09:45:04.776Z,0.80
2022-08-11T09:46:04.761Z,0.70
2022-08-11T09:47:04.743Z,0.70
2022-08-11T09:48:04.729Z,0.90
2022-08-11T09:49:04.711Z,0.80
2022-08-11T09:50:04.718Z,0.50
2022-08-11T09:51:04.714Z,0.70
2022-08-11T09:52:05.448Z,0.70
2022-08-11T09:53:37.343Z,0.70
2022-08-11T09:54:05.658Z,0.70
2022-08-11T09:55:04.652Z,0.90
2022-08-11T09:56:04.653Z,0.60
2022-08-11T09:57:05.477Z,0.60
2022-08-11T09:58:04.625Z,0.60
2022-08-11T09:59:04.627Z,0.60
2022-08-11T10:00:12.762Z,0.60
2022-08-11T10:01:08.381Z,0.60
2022-08-11T10:02:04.607Z,0.70
2022-08-11T10:03:04.564Z,0.60
2022-08-11T10:04:04.577Z,0.50
2022-08-11T10:05:04.526Z,0.50
2022-08-11T10:06:07.845Z,0.60
2022-08-11T10:07:05.108Z,0.60
2022-08-11T10:08:04.520Z,0.60
2022-08-11T10:09:04.518Z,0.80
2022-08-11T10:10:04.493Z,0.60
2022-08-11T10:11:04.476Z,0.60
2022-08-11T10:12:04.466Z,0.70
2022-08-11T10:13:04.459Z,0.50
2022-08-11T10:14:32.253Z,0.50
2022-08-11T10:15:05.484Z,1.00
2022-08-11T10:16:16.397Z,0.50
2022-08-11T10:17:05.416Z,0.90
2022-08-11T10:18:04.415Z,0.40
2022-08-11T10:19:04.392Z,0.60
2022-08-11T10:20:05.909Z,0.60
2022-08-11T10:21:04.399Z,0.70
2022-08-11T10:22:05.307Z,1.30
2022-08-11T10:23:04.359Z,0.50
2022-08-11T10:24:06.019Z,0.70
2022-08-11T10:25:04.329Z,0.50
2022-08-11T10:26:04.336Z,0.50
2022-08-11T10:27:07.305Z,0.70
2022-08-11T10:28:28.866Z,0.80
2022-08-11T10:29:13.058Z,0.80
2022-08-11T10:30:05.277Z,0.60
2022-08-11T10:31:04.812Z,0.80
2022-08-11T10:32:04.802Z,0.80
2022-08-11T10:33:18.968Z,0.70
2022-08-11T10:34:08.821Z,0.70
2022-08-11T10:35:04.244Z,0.60
2022-08-11T10:36:16.605Z,0.60
2022-08-11T10:37:05.805Z,0.60
2022-08-11T10:38:08.622Z,0.50
2022-08-11T10:39:05.189Z,0.60
2022-08-11T10:40:04.177Z,0.60
2022-08-11T10:41:04.345Z,0.60
2022-08-11T10:42:09.603Z,0.50
2022-08-11T10:43:05.154Z,0.60
2022-08-11T10:44:04.303Z,0.60
2022-08-11T10:45:04.128Z,0.60
2022-08-11T10:46:04.355Z,0.70
2022-08-11T10:47:04.123Z,0.50
2022-08-11T10:48:04.089Z,0.50
2022-08-11T10:49:04.817Z,0.60
2022-08-11T10:50:05.222Z,1.00
2022-08-11T10:51:04.852Z,0.80
2022-08-11T10:52:04.047Z,0.50
2022-08-11T10:53:04.046Z,0.70
2022-08-11T10:54:04.838Z,0.60
2022-08-11T10:55:04.023Z,0.50
2022-08-11T10:57:04.026Z,0.40
2022-08-11T10:58:04.271Z,0.40
2022-08-11T10:59:04.819Z,0.50
2022-08-11T11:00:04.333Z,0.60
2022-08-11T11:01:04.043Z,0.60
2022-08-11T11:02:04.335Z,0.50
2022-08-11T11:03:16.772Z,0.50
2022-08-11T11:04:04.913Z,0.50
2022-08-11T11:05:04.816Z,0.50
2022-08-11T11:06:28.728Z,0.50
2022-08-11T11:07:05.813Z,0.70
2022-08-11T11:08:03.899Z,0.70
2022-08-11T11:09:04.973Z,0.50
2022-08-11T11:10:03.856Z,0.60
2022-08-11T11:11:03.842Z,0.40
2022-08-11T11:12:03.839Z,0.50
2022-08-11T11:13:03.854Z,0.50
2022-08-11T11:14:03.815Z,0.50
2022-08-11T11:15:10.317Z,0.50
2022-08-11T11:16:04.795Z,0.50
2022-08-11T11:17:03.763Z,0.50
2022-08-11T11:18:03.765Z,0.50
2022-08-11T11:19:03.785Z,0.60
2022-08-11T11:20:03.753Z,0.60
2022-08-11T11:21:03.732Z,0.60
2022-08-11T11:22:10.321Z,0.50
2022-08-11T11:23:03.708Z,0.50
2022-08-11T11:24:03.706Z,0.40
2022-08-11T11:25:03.842Z,0.40
2022-08-11T11:26:03.705Z,0.50
2022-08-11T11:27:06.315Z,0.40
2022-08-11T11:28:03.655Z,0.60
2022-08-11T11:29:03.653Z,0.50
2022-08-11T11:30:03.650Z,0.70
2022-08-11T11:31:03.862Z,0.60
2022-08-11T11:32:03.613Z,0.50
2022-08-11T11:33:03.608Z,0.70
2022-08-11T11:34:06.507Z,0.60
2022-08-11T11:35:05.325Z,0.80
2022-08-11T11:36:03.849Z,0.70
2022-08-11T11:37:03.585Z,0.70
2022-08-11T11:38:08.371Z,0.60
2022-08-11T11:39:10.395Z,0.60
2022-08-11T11:40:10.335Z,0.60
2022-08-11T11:41:03.526Z,0.40
2022-08-11T11:42:03.527Z,0.50
2022-08-11T11:43:03.509Z,0.60
2022-08-11T11:44:04.328Z,1.00
2022-08-11T11:45:03.481Z,0.60
2022-08-11T11:46:03.473Z,1.10
2022-08-11T11:47:03.463Z,0.50
2022-08-11T11:48:03.451Z,0.50
2022-08-11T11:49:03.449Z,0.60
2022-08-11T11:50:04.430Z,0.60
2022-08-11T11:51:03.406Z,0.40
2022-08-11T11:52:03.408Z,0.60
2022-08-11T11:53:03.416Z,0.50
2022-08-11T11:54:03.390Z,0.60
2022-08-11T11:55:03.401Z,0.70
2022-08-11T11:56:03.372Z,0.50
2022-08-11T11:57:04.322Z,0.50
2022-08-11T11:58:03.352Z,0.50
2022-08-11T11:59:03.331Z,0.50
2022-08-11T12:00:03.331Z,0.60
2022-08-11T12:01:03.365Z,0.90
2022-08-11T12:02:11.640Z,0.70
2022-08-11T12:03:04.302Z,0.80
2022-08-11T12:04:03.293Z,0.50
2022-08-11T12:05:03.359Z,0.50
2022-08-11T12:06:03.262Z,0.70
2022-08-11T12:07:03.262Z,0.50
2022-08-11T12:08:05.285Z,0.90
2022-08-11T12:09:04.237Z,0.50
2022-08-11T12:10:03.227Z,0.60
2022-08-11T12:11:03.233Z,0.60
2022-08-11T12:12:03.202Z,0.70
2022-08-11T12:13:03.188Z,0.50
2022-08-11T12:14:03.180Z,0.60
2022-08-11T12:15:04.168Z,0.50
2022-08-11T12:16:32.826Z,0.70
2022-08-11T12:17:04.166Z,0.50
2022-08-11T12:18:03.144Z,0.50
2022-08-11T12:19:03.128Z,0.40
2022-08-11T12:20:03.119Z,0.60
2022-08-11T12:21:03.099Z,0.40
2022-08-11T12:22:03.117Z,0.60
2022-08-11T12:23:03.083Z,0.40
2022-08-11T12:24:04.601Z,0.60
2022-08-11T12:25:03.072Z,0.70
2022-08-11T12:26:26.520Z,0.50
2022-08-11T12:27:19.361Z,0.50
2022-08-11T12:28:03.034Z,0.80
2022-08-11T12:29:03.037Z,0.40
2022-08-11T12:30:05.878Z,0.50
2022-08-11T12:31:04.043Z,0.60
2022-08-11T12:32:02.999Z,0.50
2022-08-11T12:33:02.983Z,0.60
2022-08-11T12:34:02.981Z,0.50
2022-08-11T12:35:02.978Z,0.60
2022-08-11T12:36:02.959Z,0.60
2022-08-11T12:37:02.968Z,0.50
2022-08-11T12:38:09.450Z,0.60
2022-08-11T12:39:06.145Z,0.40
2022-08-11T12:40:16.478Z,0.60
2022-08-11T12:41:19.393Z,0.60
2022-08-11T12:42:04.026Z,0.60
2022-08-11T12:43:03.996Z,0.50
2022-08-11T12:44:02.904Z,0.60
2022-08-11T12:45:02.877Z,0.60
2022-08-11T12:46:02.867Z,0.40
2022-08-11T12:47:02.846Z,0.70
2022-08-11T12:48:57.795Z,0.50
2022-08-11T12:49:04.099Z,0.60
2022-08-11T12:50:02.810Z,0.70
2022-08-11T12:51:02.819Z,0.40
2022-08-11T12:52:13.023Z,0.50
2022-08-11T12:53:03.790Z,0.50
2022-08-11T12:54:02.793Z,0.50
2022-08-11T12:55:02.795Z,0.50
2022-08-11T12:56:07.776Z,0.70
2022-08-11T12:57:02.747Z,0.50
2022-08-11T12:58:02.722Z,0.50
2022-08-11T12:59:02.720Z,0.70
2022-08-11T13:00:02.726Z,0.60
2022-08-11T13:01:02.726Z,0.70
2022-08-11T13:02:02.694Z,0.60
2022-08-11T13:03:02.668Z,0.60
2022-08-11T13:04:02.665Z,0.60
2022-08-11T13:05:02.652Z,0.60
2022-08-11T13:06:02.871Z,0.60
2022-08-11T13:07:02.637Z,0.50
2022-08-11T13:08:02.621Z,0.50
2022-08-11T13:09:02.619Z,0.80
2022-08-11T13:10:02.767Z,0.50
2022-08-11T13:11:02.622Z,0.60
2022-08-11T13:12:03.354Z,0.80
2022-08-11T13:13:03.357Z,0.40
2022-08-11T13:14:03.352Z,0.70
2022-08-11T13:15:03.371Z,0.60
2022-08-11T13:16:02.556Z,0.80
2022-08-11T13:17:02.540Z,0.50
2022-08-11T13:18:02.514Z,0.50
2022-08-11T13:19:03.352Z,0.40
2022-08-11T13:20:03.364Z,0.50
2022-08-11T13:21:02.487Z,0.80